createdAt,value
2022-07-31T00:12:39.621Z,43.49
2022-07-31T00:27:41.876Z,42.97
2022-07-31T00:42:44.197Z,43.05
2022-07-31T00:57:46.420Z,42.39
2022-07-31T01:12:52.347Z,41.02
2022-07-31T01:27:56.493Z,40.36
2022-07-31T01:42:58.719Z,39.52
2022-07-31T01:58:00.996Z,38.44
2022-07-31T02:13:03.233Z,36.97
2022-07-31T02:28:05.553Z,35.94
2022-07-31T02:43:07.749Z,35.05
2022-07-31T02:58:09.943Z,34.21
2022-07-31T03:13:12.251Z,33.68
2022-07-31T03:28:14.439Z,32.5
2022-07-31T03:43:16.653Z,31.87
2022-07-31T03:58:18.874Z,30.93
2022-07-31T04:13:21.216Z,30.21
2022-07-31T04:28:23.449Z,29.65
2022-07-31T04:43:25.683Z,28.58
2022-07-31T04:58:27.906Z,29.06
2022-07-31T05:13:30.132Z,27.66
2022-07-31T05:28:32.366Z,27.68
2022-07-31T05:43:34.564Z,27.67
2022-07-31T05:58:36.784Z,26.87
2022-07-31T06:13:39.033Z,26.17
2022-07-31T06:28:49.111Z,25.58
2022-07-31T06:43:51.754Z,25.24
2022-07-31T06:58:54.023Z,24.58
2022-07-31T07:13:56.366Z,24.7
2022-07-31T07:28:58.617Z,24.68
2022-07-31T07:44:00.845Z,24.11
2022-07-31T07:59:03.063Z,23.65
2022-07-31T08:14:05.309Z,23.31
2022-07-31T08:29:07.768Z,23.05
2022-07-31T08:44:10.080Z,23.1
2022-07-31T08:59:12.464Z,22.76
2022-07-31T09:14:14.681Z,22.67
2022-07-31T09:29:17.114Z,22.27
2022-07-31T09:44:19.688Z,21.87
2022-07-31T09:59:28.305Z,21.81
2022-07-31T10:14:30.489Z,21.68
2022-07-31T10:29:33.193Z,21.34
2022-07-31T10:44:38.792Z,21.62
2022-07-31T10:59:44.578Z,21.55
2022-07-31T11:14:47.447Z,21.01
2022-07-31T11:30:01.945Z,21.07
2022-07-31T11:45:08.607Z,21.02
2022-07-31T12:00:26.646Z,20.04
2022-07-31T12:15:31.950Z,20.5
2022-07-31T12:30:34.202Z,20.31
2022-07-31T12:45:36.418Z,20.09
2022-07-31T13:00:40.176Z,20.15
2022-07-31T13:15:42.554Z,20.03
2022-07-31T13:30:44.764Z,21.16
2022-07-31T13:45:46.997Z,21.22
2022-07-31T14:00:49.280Z,21.67
2022-07-31T14:15:51.517Z,22.73
2022-07-31T14:30:53.700Z,23.65
2022-07-31T14:45:55.874Z,23.05
2022-07-31T15:00:58.153Z,24.55
2022-07-31T15:16:00.413Z,24.97
2022-07-31T15:31:02.717Z,26.35
2022-07-31T15:46:04.959Z,28.47
2022-07-31T16:01:07.217Z,29.13
2022-07-31T16:16:09.599Z,29.9
2022-07-31T16:31:11.795Z,30.04
2022-07-31T16:46:32.754Z,31.21
2022-07-31T17:01:54.146Z,31.11
2022-07-31T17:17:03.401Z,31.68
2022-07-31T17:32:06.004Z,32.39
2022-07-31T17:47:08.720Z,32.9
2022-07-31T18:02:11.826Z,33.44
2022-07-31T18:17:14.111Z,34.23
2022-07-31T18:32:16.284Z,34.96
2022-07-31T18:47:18.469Z,35.19
2022-07-31T19:02:20.885Z,35.51
2022-07-31T19:17:24.319Z,35.75
2022-07-31T19:32:45.838Z,36.25
2022-07-31T19:47:48.094Z,36.77
2022-07-31T20:02:50.561Z,37.14
2022-07-31T20:17:53.076Z,37.95
2022-07-31T20:32:55.302Z,39.07
2022-07-31T20:47:59.016Z,39.96
2022-07-31T21:03:01.191Z,40.49
2022-07-31T21:18:03.655Z,40.75
2022-07-31T21:33:05.933Z,41.96
2022-07-31T21:48:08.154Z,42.61
2022-07-31T22:03:10.448Z,42.78
2022-07-31T22:18:12.651Z,42.92
2022-07-31T22:33:15.025Z,42.72
2022-07-31T22:48:17.260Z,44.13
2022-07-31T23:03:19.477Z,42.39
2022-07-31T23:18:21.696Z,43.74
2022-07-31T23:33:23.895Z,43.91
2022-07-31T23:48:29.239Z,44.64
